Time;durP1;ratioP1;P1;durP2;ratioP2;P2;SDS_P1;SDS_P2;PMS_P1;PMS_P2;Temp;Humidity;BMP_temperature;BMP_pressure;BME280_temperature;BME280_humidity;BME280_pressure;Samples;Min_cycle;Max_cycle;Signal;HPM_P1;HPM_P2
2022/04/24 00:04:08;;;;;;;9.30;4.80;;;;;;;8.11;100.00;100667.09;10308190;28;20051;-72
2022/04/24 00:09:08;;;;;;;8.93;6.43;;;;;;;8.12;100.00;100679.72;10310146;28;20034;-72
2022/04/24 00:14:12;;;;;;;10.90;6.45;;;;;;;7.98;100.00;100667.34;10310137;28;20031;-72
2022/04/24 00:19:12;;;;;;;11.18;6.57;;;;;;;7.96;100.00;100658.53;10308105;28;20050;-72
2022/04/24 00:24:13;;;;;;;12.13;7.28;;;;;;;7.90;100.00;100660.38;10308359;28;20038;-71
2022/04/24 00:29:13;;;;;;;9.45;7.10;;;;;;;7.80;100.00;100655.50;10325553;28;20062;-72
2022/04/24 00:34:14;;;;;;;10.27;6.00;;;;;;;7.79;100.00;100670.28;10347523;28;20030;-71
2022/04/24 00:39:14;;;;;;;8.77;6.38;;;;;;;7.75;100.00;100680.06;10348030;28;20030;-71
2022/04/24 00:44:15;;;;;;;10.98;6.68;;;;;;;7.60;100.00;100663.25;10331648;28;20157;-72
2022/04/24 00:49:16;;;;;;;10.75;6.03;;;;;;;7.51;100.00;100668.28;10347471;28;20026;-72
2022/04/24 00:54:16;;;;;;;10.32;6.88;;;;;;;7.40;100.00;100659.00;10347134;28;20081;-72
2022/04/24 00:59:17;;;;;;;9.38;6.57;;;;;;;7.35;100.00;100658.88;10331180;28;20070;-72
2022/04/24 01:04:18;;;;;;;10.70;7.05;;;;;;;7.28;100.00;100655.44;10306584;28;20031;-72
2022/04/24 01:09:22;;;;;;;9.50;6.78;;;;;;;7.16;100.00;100644.47;10322520;28;20047;-71
2022/04/24 01:14:25;;;;;;;9.15;7.43;;;;;;;7.12;100.00;100639.72;10322134;28;20619;-72
2022/04/24 01:19:25;;;;;;;9.95;7.25;;;;;;;7.06;100.00;100647.78;10307063;28;20051;-71
2022/04/24 01:24:27;;;;;;;10.85;7.15;;;;;;;7.00;100.00;100640.50;10324374;28;20046;-71
2022/04/24 01:29:27;;;;;;;9.93;6.85;;;;;;;6.96;100.00;100644.78;10321423;28;20105;-71
2022/04/24 01:34:28;;;;;;;11.20;7.30;;;;;;;6.81;100.00;100633.47;10322104;28;20031;-72
2022/04/24 01:39:28;;;;;;;11.35;7.38;;;;;;;6.87;100.00;100644.31;10307301;28;20035;-72
2022/04/24 01:44:29;;;;;;;10.80;7.47;;;;;;;6.47;100.00;100592.16;10309212;28;20030;-71
2022/04/24 01:49:29;;;;;;;12.38;7.18;;;;;;;6.66;100.00;100634.75;10345892;28;20518;-72
2022/04/24 01:54:30;;;;;;;13.15;7.15;;;;;;;6.74;100.00;100646.41;10345201;28;20038;-72
2022/04/24 01:59:30;;;;;;;9.57;6.85;;;;;;;6.60;100.00;100630.22;10353940;28;20043;-72
2022/04/24 02:04:31;;;;;;;9.77;6.85;;;;;;;6.63;100.00;100651.63;10354946;28;20042;-72
2022/04/24 02:09:33;;;;;;;11.30;8.05;;;;;;;6.55;100.00;100638.31;10355532;28;20030;-72
2022/04/24 02:14:34;;;;;;;10.52;7.93;;;;;;;6.54;100.00;100653.03;10354777;28;20106;-72
2022/04/24 02:19:34;;;;;;;11.82;8.20;;;;;;;6.47;100.00;100652.31;10351135;28;20051;-72
2022/04/24 02:24:35;;;;;;;12.02;8.07;;;;;;;6.39;100.00;100647.19;10353802;28;20049;-72
2022/04/24 02:29:35;;;;;;;12.02;7.05;;;;;;;6.31;100.00;100637.38;10325572;28;20023;-72
2022/04/24 02:34:36;;;;;;;11.68;7.88;;;;;;;6.20;100.00;100624.50;10313377;28;20081;-71
2022/04/24 02:39:36;;;;;;;11.32;7.55;;;;;;;6.32;100.00;100660.09;10313770;28;20027;-71
2022/04/24 02:44:37;;;;;;;14.02;7.68;;;;;;;6.22;100.00;100645.09;10311491;28;20042;-72
2022/04/24 02:49:37;;;;;;;11.95;7.38;;;;;;;6.16;100.00;100645.16;10310574;28;20077;-72
2022/04/24 02:54:39;;;;;;;11.23;7.18;;;;;;;6.17;100.00;100657.78;10294354;28;20491;-72
2022/04/24 02:59:42;;;;;;;12.18;7.93;;;;;;;5.90;100.00;100619.00;10311789;28;20042;-72
2022/04/24 03:04:45;;;;;;;13.25;8.43;;;;;;;6.04;100.00;100648.69;10312288;28;20030;-72
2022/04/24 03:09:45;;;;;;;11.73;7.68;;;;;;;6.03;100.00;100657.91;10327331;28;20041;-71
2022/04/24 03:14:46;;;;;;;9.80;7.47;;;;;;;5.85;100.00;100639.63;10312122;28;20027;-71
2022/04/24 03:19:46;;;;;;;14.40;7.40;;;;;;;5.97;100.00;100658.84;10311279;28;20059;-72
2022/04/24 03:24:47;;;;;;;12.43;7.60;;;;;;;5.93;100.00;100656.78;10311343;28;20058;-72
2022/04/24 03:29:47;;;;;;;11.35;7.88;;;;;;;5.94;100.00;100669.38;10310504;28;20035;-71
2022/04/24 03:34:48;;;;;;;11.45;7.53;;;;;;;5.88;100.00;100664.84;10310260;28;20051;-72
2022/04/24 03:39:48;;;;;;;14.75;8.10;;;;;;;5.81;100.00;100659.44;10311651;28;20039;-72
2022/04/24 03:44:48;;;;;;;11.45;7.47;;;;;;;5.77;100.00;100658.25;10310764;28;20396;-72
2022/04/24 03:49:49;;;;;;;11.40;7.70;;;;;;;5.68;100.00;100648.66;10310405;28;20022;-72
2022/04/24 03:54:50;;;;;;;13.27;7.70;;;;;;;5.61;100.00;100652.31;10306539;28;20373;-72
2022/04/24 03:59:50;;;;;;;15.02;7.93;;;;;;;5.19;100.00;100580.31;10324258;28;20046;-72
2022/04/24 04:04:51;;;;;;;12.00;7.82;;;;;;;5.51;100.00;100649.25;10310006;28;20043;-72
2022/04/24 04:09:51;;;;;;;12.93;7.30;;;;;;;5.49;100.00;100656.00;10309210;28;20387;-72
2022/04/24 04:14:53;;;;;;;12.40;7.55;;;;;;;5.18;100.00;100597.75;10309473;28;20031;-73
2022/04/24 04:19:53;;;;;;;10.55;7.78;;;;;;;5.51;100.00;100653.91;10325345;28;20046;-72
2022/04/24 04:24:53;;;;;;;13.40;7.57;;;;;;;5.50;100.00;100636.69;10347384;28;20065;-72
2022/04/24 04:29:55;;;;;;;12.65;7.53;;;;;;;5.56;100.00;100646.69;10336217;28;20031;-72
2022/04/24 04:34:56;;;;;;;12.40;7.53;;;;;;;5.67;100.00;100658.75;10306594;28;20043;-72
2022/04/24 04:39:56;;;;;;;12.50;6.90;;;;;;;5.72;100.00;100661.63;10309410;28;20030;-71
2022/04/24 04:44:59;;;;;;;13.10;7.63;;;;;;;5.49;100.00;100623.25;10307903;28;20031;-72
2022/04/24 04:49:59;;;;;;;11.15;7.47;;;;;;;5.95;100.00;100677.38;10307512;28;20521;-72
2022/04/24 04:55:00;;;;;;;11.52;7.72;;;;;;;5.98;100.00;100679.66;10305549;28;20050;-73
2022/04/24 05:00:01;;;;;;;11.45;7.70;;;;;;;6.00;100.00;100668.50;10288654;28;20027;-72
2022/04/24 05:05:02;;;;;;;13.25;8.13;;;;;;;6.14;100.00;100669.16;10345400;28;20030;-72
2022/04/24 05:10:03;;;;;;;15.00;8.73;;;;;;;5.92;100.00;100622.31;10346964;28;20102;-72
2022/04/24 05:15:06;;;;;;;13.88;9.23;;;;;;;6.27;100.00;100669.00;10347586;28;20034;-73
2022/04/24 05:20:08;;;;;;;14.35;8.65;;;;;;;6.44;100.00;100680.13;10346059;28;20042;-72
2022/04/24 05:25:09;;;;;;;13.27;8.13;;;;;;;6.64;100.00;100691.59;10329744;28;20042;-72
2022/04/24 05:30:10;;;;;;;15.68;8.95;;;;;;;6.70;100.00;100675.31;10345703;28;20031;-72
2022/04/24 05:35:11;;;;;;;13.52;9.52;;;;;;;6.88;100.00;100691.66;10345430;28;20070;-71
2022/04/24 05:40:11;;;;;;;13.20;9.20;;;;;;;6.99;100.00;100693.59;10347200;28;20041;-72
2022/04/24 05:45:14;;;;;;;13.10;9.05;;;;;;;7.04;100.00;100693.72;10345079;28;20037;-72
2022/04/24 05:50:15;;;;;;;17.95;11.07;;;;;;;7.18;100.00;100688.03;10337410;28;20101;-72
2022/04/24 05:55:15;;;;;;;13.10;9.57;;;;;;;7.30;100.00;100702.59;10304702;28;20085;-72
2022/04/24 06:00:16;;;;;;;15.07;9.60;;;;;;;7.44;100.00;100706.75;10332929;28;20569;-72
2022/04/24 06:05:17;;;;;;;13.98;8.77;;;;;;;7.71;100.00;100700.78;10345184;28;20537;-72
2022/04/24 06:10:17;;;;;;;11.85;7.13;;;;;;;8.15;100.00;100712.16;10346657;28;20390;-72
2022/04/24 06:15:21;;;;;;;10.02;6.70;;;;;;;8.27;100.00;100676.47;10344368;28;20034;-73
2022/04/24 06:20:22;;;;;;;13.95;5.93;;;;;;;8.75;100.00;100699.91;10344693;28;20065;-72
2022/04/24 06:25:24;;;;;;;11.27;6.18;;;;;;;9.00;100.00;100706.94;10344896;28;20057;-73
2022/04/24 06:30:27;;;;;;;8.05;4.72;;;;;;;9.13;100.00;100692.88;10287929;28;20038;-72
2022/04/24 06:35:27;;;;;;;7.75;4.75;;;;;;;9.14;100.00;100690.97;10314365;28;20407;-72
2022/04/24 06:40:27;;;;;;;10.30;4.20;;;;;;;9.49;100.00;100704.47;10320149;28;20051;-72
2022/04/24 06:45:30;;;;;;;5.22;3.50;;;;;;;9.46;100.00;100699.44;10312372;28;20039;-72
2022/04/24 06:50:31;;;;;;;6.43;3.25;;;;;;;9.13;100.00;100705.78;10327398;28;20042;-72
2022/04/24 06:55:34;;;;;;;5.30;3.42;;;;;;;9.08;100.00;100698.31;10327747;28;20031;-72
2022/04/24 07:00:36;;;;;;;7.22;2.95;;;;;;;9.29;100.00;100707.69;10327114;28;20030;-72
2022/04/24 07:05:37;;;;;;;9.27;2.80;;;;;;;9.36;100.00;100708.34;10312314;28;20039;-71
2022/04/24 07:10:37;;;;;;;8.02;3.30;;;;;;;9.42;100.00;100714.78;10311747;28;20031;-73
2022/04/24 07:15:40;;;;;;;4.45;3.35;;;;;;;9.48;100.00;100689.84;10311681;28;20046;-73
2022/04/24 07:20:41;;;;;;;9.15;3.95;;;;;;;10.00;100.00;100705.16;10315457;28;20043;-74
2022/04/24 07:25:43;;;;;;;8.70;3.00;;;;;;;10.44;100.00;100709.91;10351794;28;20054;-73
2022/04/24 07:30:44;;;;;;;4.82;2.75;;;;;;;10.73;100.00;100691.22;10338290;28;20039;-73
2022/04/24 07:35:44;;;;;;;4.68;2.78;;;;;;;10.98;100.00;100703.56;10326147;28;20043;-72
2022/04/24 07:40:45;;;;;;;7.68;3.22;;;;;;;11.15;100.00;100697.94;10310439;28;20034;-72
2022/04/24 07:45:47;;;;;;;5.95;3.08;;;;;;;11.33;100.00;100678.25;10310446;28;20046;-70
2022/04/24 07:50:52;;;;;;;5.95;2.58;;;;;;;11.49;100.00;100682.75;10341134;28;20045;-71
2022/04/24 07:55:52;;;;;;;5.45;2.67;;;;;;;11.55;100.00;100680.84;10388640;28;20037;-70
2022/04/24 08:00:53;;;;;;;5.65;3.00;;;;;;;11.71;99.09;100685.38;10363553;28;20039;-68
2022/04/24 08:05:53;;;;;;;4.90;2.40;;;;;;;11.76;95.14;100668.03;10373945;28;20038;-71
2022/04/24 08:10:57;;;;;;;5.13;3.03;;;;;;;11.95;96.70;100656.56;10388227;28;20030;-71
2022/04/24 08:15:59;;;;;;;6.97;3.03;;;;;;;12.00;93.99;100665.69;10355037;28;20030;-71
2022/04/24 08:20:59;;;;;;;5.80;2.80;;;;;;;12.30;94.24;100676.03;10385927;28;20054;-71
2022/04/24 08:26:00;;;;;;;8.07;2.60;;;;;;;12.62;92.69;100661.19;10387194;28;20053;-71
2022/04/24 08:31:00;;;;;;;5.82;2.72;;;;;;;12.92;89.79;100662.38;10389188;28;20057;-71
2022/04/24 08:36:01;;;;;;;5.28;2.53;;;;;;;13.11;88.00;100663.47;10358141;28;20568;-71
2022/04/24 08:41:01;;;;;;;7.00;2.40;;;;;;;13.13;85.63;100652.97;10346352;28;20057;-71
2022/04/24 08:46:02;;;;;;;4.00;2.50;;;;;;;13.39;85.71;100655.72;10344864;28;20042;-71
2022/04/24 08:51:05;;;;;;;3.70;2.22;;;;;;;13.64;85.23;100665.09;10328871;28;20026;-71
2022/04/24 08:56:05;;;;;;;4.55;2.15;;;;;;;13.72;81.57;100667.28;10332458;28;20046;-70
2022/04/24 09:01:06;;;;;;;3.22;2.28;;;;;;;13.82;81.57;100663.66;10364826;28;20045;-71
2022/04/24 09:06:06;;;;;;;4.95;1.90;;;;;;;13.95;81.12;100657.53;10380724;28;20778;-71
2022/04/24 09:11:07;;;;;;;3.50;1.90;;;;;;;14.11;78.12;100661.06;10386235;28;20033;-71
2022/04/24 09:16:07;;;;;;;4.60;2.63;;;;;;;14.24;78.18;100663.25;10386911;28;20081;-71
2022/04/24 09:21:10;;;;;;;9.88;3.13;;;;;;;14.38;78.73;100663.44;10385802;28;20050;-71
2022/04/24 09:26:15;;;;;;;7.15;2.72;;;;;;;14.58;79.54;100670.84;10386731;28;20449;-70
2022/04/24 09:31:16;;;;;;;5.18;2.22;;;;;;;14.64;77.54;100658.59;10385091;28;20606;-71
2022/04/24 09:36:17;;;;;;;5.28;2.17;;;;;;;14.84;74.83;100659.56;10376674;28;20030;-72
2022/04/24 09:41:23;;;;;;;4.80;2.15;;;;;;;14.91;74.70;100655.38;10382431;28;20069;-70
2022/04/24 09:46:27;;;;;;;3.33;2.00;;;;;;;15.06;74.94;100657.19;10385916;28;20037;-70
2022/04/24 09:51:28;;;;;;;3.60;2.40;;;;;;;15.40;73.83;100656.34;10386392;28;20017;-70
2022/04/24 09:56:29;;;;;;;3.45;2.05;;;;;;;15.69;72.13;100658.28;10369020;28;20085;-70
2022/04/24 10:01:29;;;;;;;3.85;2.58;;;;;;;15.57;73.17;100661.44;10384815;28;20056;-70
2022/04/24 10:06:30;;;;;;;6.32;2.65;;;;;;;15.63;71.92;100645.59;10382338;28;20037;-72
2022/04/24 10:11:30;;;;;;;3.35;2.67;;;;;;;15.44;73.45;100651.03;10382950;28;20148;-73
2022/04/24 10:16:49;;;;;;;5.72;2.60;;;;;;;15.73;72.70;100654.66;10369621;28;20033;-72
2022/04/24 10:22:21;;;;;;;4.63;2.20;;;;;;;15.80;70.79;100651.50;10392509;28;20103;-72
2022/04/24 10:27:21;;;;;;;3.83;2.40;;;;;;;15.77;72.02;100654.03;10389376;28;20034;-72
2022/04/24 10:32:30;;;;;;;5.78;2.53;;;;;;;16.02;69.33;100650.13;10393308;28;20026;-69
2022/04/24 10:37:31;;;;;;;7.55;2.90;;;;;;;16.46;69.31;100649.84;10389498;28;20057;-70
2022/04/24 10:42:35;;;;;;;2.88;1.95;;;;;;;16.48;67.04;100636.47;10351720;28;20042;-70
2022/04/24 10:48:05;;;;;;;4.38;2.22;;;;;;;16.82;67.60;100629.88;10353355;28;20034;-70
2022/04/24 10:53:09;;;;;;;5.55;2.13;;;;;;;16.80;64.97;100622.94;10353039;28;20550;-72
2022/04/24 10:58:10;;;;;;;4.07;1.92;;;;;;;17.06;63.84;100632.56;10351107;28;20030;-72
2022/04/24 11:03:14;;;;;;;4.63;1.65;;;;;;;16.70;62.75;100615.59;10309878;28;20054;-72
2022/04/24 11:08:20;;;;;;;3.38;1.70;;;;;;;16.54;62.06;100613.06;10326777;28;20042;-74
2022/04/24 11:13:21;;;;;;;2.22;1.50;;;;;;;16.91;61.22;100621.69;10310597;28;20035;-73
2022/04/24 11:18:23;;;;;;;4.00;2.08;;;;;;;17.10;60.40;100613.31;10311833;28;20055;-68
2022/04/24 11:23:28;;;;;;;3.58;1.98;;;;;;;17.22;61.86;100621.16;10309973;28;20030;-70
2022/04/24 11:28:43;;;;;;;3.17;1.80;;;;;;;17.74;62.46;100627.44;10310360;28;20043;-73
2022/04/24 11:33:56;;;;;;;4.57;2.00;;;;;;;16.91;61.07;100628.09;10333946;28;20031;-74
2022/04/24 11:38:57;;;;;;;4.63;2.28;;;;;;;17.08;63.00;100621.13;10311066;28;20031;-71
2022/04/24 11:44:01;;;;;;;3.33;2.13;;;;;;;17.37;60.73;100617.28;10342385;28;20101;-71
2022/04/24 11:54:24;;;;;;;5.78;2.20;;;;;;;17.15;64.01;100616.00;10390638;28;20038;-73
2022/04/24 11:59:25;;;;;;;3.13;2.33;;;;;;;18.20;61.48;100637.66;10371031;28;20013;-71
2022/04/24 12:04:31;;;;;;;4.97;2.83;;;;;;;19.10;58.14;100623.03;10383244;28;20045;-69
2022/04/24 12:09:32;;;;;;;4.47;2.90;;;;;;;18.63;56.94;100617.75;10388489;28;20040;-70
2022/04/24 12:14:34;;;;;;;2.92;2.00;;;;;;;18.10;60.35;100627.53;10381703;28;20478;-72
2022/04/24 12:19:35;;;;;;;6.20;2.65;;;;;;;19.15;57.77;100636.88;10388049;28;20038;-75
2022/04/24 12:24:43;;;;;;;4.10;2.45;;;;;;;18.76;58.54;100616.84;10388293;28;20038;-71
2022/04/24 12:29:50;;;;;;;2.67;2.38;;;;;;;17.83;60.28;100625.59;10367322;28;20037;-72
2022/04/24 12:34:50;;;;;;;;;;;;;;;19.01;58.43;100625.75;10349443;28;20102;-72
2022/04/24 12:39:52;;;;;;;4.32;2.45;;;;;;;19.47;57.64;100632.13;10348484;28;19924;-72
2022/04/24 12:44:53;;;;;;;4.28;2.50;;;;;;;18.62;56.96;100612.47;10346628;28;20379;-74
2022/04/24 12:49:53;;;;;;;4.72;2.30;;;;;;;19.20;58.36;100616.38;10331681;28;20066;-75
2022/04/24 12:54:54;;;;;;;3.70;2.30;;;;;;;20.31;54.98;100597.59;10322224;28;20031;-73
2022/04/24 12:59:54;;;;;;;8.80;2.80;;;;;;;19.73;54.10;100556.88;10321968;28;21272;-73
2022/04/24 13:04:55;;;;;;;5.32;2.88;;;;;;;20.28;54.46;100612.25;10307877;28;20043;-74
2022/04/24 13:09:55;;;;;;;3.67;2.53;;;;;;;20.34;54.64;100615.72;10308308;28;20034;-74
2022/04/24 13:14:56;;;;;;;5.32;2.50;;;;;;;20.02;52.04;100486.44;10305841;28;20093;-71
2022/04/24 13:19:56;;;;;;;3.85;2.50;;;;;;;21.02;53.73;100590.84;10307190;28;20046;-72
2022/04/24 13:24:57;;;;;;;5.35;2.60;;;;;;;19.65;55.29;100605.94;10306337;28;20109;-72
2022/04/24 13:29:57;;;;;;;3.42;2.35;;;;;;;19.86;52.42;100592.22;10327775;28;20042;-70
2022/04/24 13:34:58;;;;;;;3.85;2.25;;;;;;;19.78;54.25;100592.22;10347444;28;20030;-71
2022/04/24 13:39:58;;;;;;;4.65;2.15;;;;;;;20.90;51.49;100576.75;10347484;28;20046;-71
2022/04/24 13:44:59;;;;;;;3.85;2.45;;;;;;;20.13;51.09;100587.53;10346053;28;20042;-72
2022/04/24 13:49:59;;;;;;;5.65;2.63;;;;;;;19.56;52.55;100575.19;10346464;28;20033;-73
2022/04/24 13:55:00;;;;;;;3.28;2.03;;;;;;;20.47;54.76;100588.75;10345019;28;20031;-72
2022/04/24 14:00:00;;;;;;;5.10;2.45;;;;;;;20.95;51.75;100584.97;10315873;28;20066;-71
2022/04/24 14:05:02;;;;;;;3.95;1.73;;;;;;;20.67;52.24;100584.47;10305182;28;20125;-72
2022/04/24 14:10:03;;;;;;;4.63;1.85;;;;;;;20.63;51.95;100589.09;10306229;28;20041;-72
2022/04/24 14:15:05;;;;;;;5.35;2.25;;;;;;;21.21;49.87;100575.66;10305684;28;20093;-72
2022/04/24 14:20:06;;;;;;;3.22;2.25;;;;;;;20.49;50.73;100499.75;10305683;28;20043;-73
2022/04/24 14:25:08;;;;;;;4.03;2.05;;;;;;;20.92;51.12;100563.25;10288535;28;20092;-73
2022/04/24 14:30:10;;;;;;;6.57;2.40;;;;;;;20.96;51.30;100581.03;10380196;28;20060;-70
2022/04/24 14:35:12;;;;;;;3.65;2.33;;;;;;;20.98;48.80;100561.06;10380960;28;20034;-72
2022/04/24 14:40:12;;;;;;;3.30;2.50;;;;;;;20.49;50.31;100562.09;10367542;28;20046;-71
2022/04/24 14:45:13;;;;;;;5.07;2.60;;;;;;;20.71;50.71;100571.47;10385381;28;20034;-73
2022/04/24 14:55:44;;;;;;;3.90;2.03;;;;;;;21.27;50.09;100554.72;10381683;28;20034;-72
2022/04/24 15:00:45;;;;;;;6.03;2.08;;;;;;;21.78;49.24;100580.91;10379205;28;20053;-71
2022/04/24 15:05:46;;;;;;;4.35;2.10;;;;;;;21.32;48.51;100526.56;10389615;28;20040;-70
2022/04/24 15:10:46;;;;;;;4.38;2.15;;;;;;;21.49;48.00;100574.13;10373833;28;20049;-70
2022/04/24 15:15:47;;;;;;;4.53;2.13;;;;;;;21.59;49.08;100575.75;10391768;28;20026;-71
2022/04/24 15:20:47;;;;;;;3.63;2.00;;;;;;;21.36;47.89;100552.75;10391585;28;20053;-74
2022/04/24 15:25:48;;;;;;;3.28;2.20;;;;;;;21.60;48.67;100540.13;10389968;28;20037;-69
2022/04/24 15:30:48;;;;;;;20.05;4.00;;;;;;;21.65;47.95;100565.19;10334331;28;20035;-67
2022/04/24 15:35:49;;;;;;;4.20;2.45;;;;;;;21.60;46.20;100565.34;10311153;28;20039;-74
2022/04/24 15:40:49;;;;;;;5.10;2.17;;;;;;;21.83;47.79;100580.75;10310611;28;20047;-72
2022/04/24 15:45:50;;;;;;;5.70;2.60;;;;;;;21.84;48.18;100576.78;10309327;28;20081;-72
2022/04/24 15:50:50;;;;;;;6.82;2.08;;;;;;;21.61;47.41;100581.00;10308525;28;20475;-72
2022/04/24 15:55:51;;;;;;;4.80;3.22;;;;;;;21.85;47.77;100583.19;10309734;28;20046;-72
2022/04/24 16:00:51;;;;;;;3.72;2.65;;;;;;;20.84;47.65;100544.50;10321559;28;20031;-70
2022/04/24 16:05:52;;;;;;;7.38;2.22;;;;;;;21.13;47.44;100586.56;10309555;28;20038;-71
2022/04/24 16:10:53;;;;;;;6.28;2.10;;;;;;;20.63;49.08;100587.13;10309198;28;20043;-72
2022/04/24 16:15:53;;;;;;;3.03;2.20;;;;;;;20.70;48.61;100567.06;10307055;28;20035;-72
2022/04/24 16:20:54;;;;;;;8.18;2.90;;;;;;;20.85;48.08;100596.50;10309463;28;20063;-72
2022/04/24 16:25:56;;;;;;;8.23;2.78;;;;;;;21.20;47.67;100602.03;10318776;28;20086;-70
2022/04/24 16:30:59;;;;;;;6.15;2.65;;;;;;;20.62;48.74;100599.47;10348740;28;20038;-71
2022/04/24 16:36:00;;;;;;;3.70;2.50;;;;;;;21.19;48.12;100595.63;10345909;28;20517;-71
2022/04/24 16:41:00;;;;;;;4.28;2.67;;;;;;;20.47;49.00;100569.16;10345126;28;20047;-71
2022/04/24 16:46:01;;;;;;;5.82;3.05;;;;;;;20.97;48.42;100610.63;10346420;28;20030;-71
2022/04/24 17:01:41;;;;;;;8.05;2.83;;;;;;;18.94;53.59;100637.38;10345566;28;20038;-71
2022/04/24 17:06:41;;;;;;;5.47;3.08;;;;;;;17.85;55.35;100647.56;10333603;28;20033;-70
2022/04/24 17:11:42;;;;;;;9.07;3.55;;;;;;;16.83;57.62;100659.34;10334646;28;20046;-70
2022/04/24 17:16:42;;;;;;;6.50;3.38;;;;;;;15.79;61.86;100657.34;10344882;28;20076;-71
2022/04/24 17:21:43;;;;;;;5.15;2.95;;;;;;;15.40;63.50;100686.00;10343475;28;20046;-70
2022/04/24 17:26:44;;;;;;;8.70;3.72;;;;;;;14.86;65.96;100679.50;10313002;28;20046;-71
2022/04/24 17:31:46;;;;;;;7.28;3.45;;;;;;;14.29;70.76;100690.06;10319879;28;20062;-72
2022/04/24 17:36:46;;;;;;;8.30;3.55;;;;;;;13.55;70.76;100672.31;10322217;28;20102;-72
2022/04/24 17:41:47;;;;;;;9.70;4.15;;;;;;;13.18;73.82;100696.34;10325477;28;20030;-71
2022/04/24 17:46:48;;;;;;;7.60;3.80;;;;;;;12.96;79.61;100721.50;10326266;28;20080;-71
2022/04/24 17:51:51;;;;;;;6.57;3.60;;;;;;;12.56;82.08;100706.47;10330015;28;20085;-71
2022/04/24 17:56:51;;;;;;;7.95;4.47;;;;;;;12.45;83.55;100733.22;10331166;28;20125;-70
2022/04/24 18:01:51;;;;;;;5.50;3.72;;;;;;;12.08;87.26;100686.44;10335156;28;20038;-70
2022/04/24 18:06:52;;;;;;;7.47;4.20;;;;;;;12.16;88.85;100746.63;10341193;28;20046;-70
2022/04/24 18:11:53;;;;;;;6.95;3.80;;;;;;;11.95;88.92;100744.84;10312871;28;20090;-70
2022/04/24 18:16:53;;;;;;;8.27;3.90;;;;;;;11.71;91.69;100739.69;10302358;28;20023;-71
2022/04/24 18:21:54;;;;;;;7.18;3.90;;;;;;;11.43;92.15;100744.47;10305571;28;20030;-70
2022/04/24 18:26:55;;;;;;;9.13;4.10;;;;;;;11.34;92.21;100761.75;10304341;28;20106;-70
2022/04/24 18:31:55;;;;;;;8.05;4.40;;;;;;;10.83;93.98;100712.50;10319488;28;20376;-71
2022/04/24 18:42:15;;;;;;;10.18;4.78;;;;;;;10.78;99.90;100760.09;10311322;28;20031;-70
2022/04/24 18:47:15;;;;;;;8.98;4.53;;;;;;;10.59;100.00;100778.88;10312034;28;20030;-70
2022/04/24 18:52:19;;;;;;;6.88;4.45;;;;;;;10.49;100.00;100796.09;10312949;28;20498;-70
2022/04/24 18:57:19;;;;;;;9.88;4.70;;;;;;;10.31;100.00;100782.63;10311057;28;20042;-70
2022/04/24 19:02:20;;;;;;;8.60;4.40;;;;;;;9.90;100.00;100749.03;10308034;28;20056;-71
2022/04/24 19:07:32;;;;;;;8.55;4.60;;;;;;;10.10;100.00;100798.81;10310441;28;20062;-71
2022/04/24 19:12:34;;;;;;;12.65;4.60;;;;;;;10.06;100.00;100814.16;10311356;28;20406;-71
2022/04/24 19:17:34;;;;;;;7.03;4.75;;;;;;;10.01;100.00;100821.53;10310902;28;20051;-71
2022/04/24 19:22:35;;;;;;;13.05;5.65;;;;;;;9.95;100.00;100828.03;10310496;28;20077;-70
2022/04/24 19:27:36;;;;;;;6.47;4.47;;;;;;;9.89;100.00;100827.13;10310604;28;20455;-70
2022/04/24 19:32:38;;;;;;;8.15;4.32;;;;;;;9.84;100.00;100847.13;10310886;28;20086;-71
2022/04/24 19:37:38;;;;;;;8.43;4.55;;;;;;;9.75;100.00;100843.13;10309328;28;20027;-71
2022/04/24 19:42:43;;;;;;;7.57;4.45;;;;;;;9.59;100.00;100835.69;10310134;28;20042;-71
2022/04/24 19:53:03;;;;;;;7.30;4.43;;;;;;;9.52;100.00;100862.50;10332844;28;20670;-71
2022/04/24 19:58:03;;;;;;;9.15;4.50;;;;;;;9.45;100.00;100865.41;10308144;28;20039;-71
2022/04/24 20:03:04;;;;;;;10.80;4.95;;;;;;;9.36;100.00;100866.88;10324501;28;20030;-71
2022/04/24 20:08:05;;;;;;;10.00;4.60;;;;;;;9.36;100.00;100870.47;10307939;28;20039;-71
2022/04/24 20:13:05;;;;;;;9.15;4.82;;;;;;;9.21;100.00;100867.44;10309319;28;20030;-71
2022/04/24 20:18:06;;;;;;;11.80;5.30;;;;;;;9.12;100.00;100893.63;10308507;28;20047;-72
2022/04/24 20:23:07;;;;;;;11.95;5.57;;;;;;;8.92;100.00;100875.66;10323670;28;20107;-72
2022/04/24 20:28:07;;;;;;;11.10;5.78;;;;;;;8.75;100.00;100866.53;10323082;28;20030;-73
2022/04/24 20:33:08;;;;;;;10.15;6.15;;;;;;;8.78;100.00;100885.25;10347838;28;20027;-73
2022/04/24 20:38:08;;;;;;;11.30;5.60;;;;;;;8.69;100.00;100877.38;10348372;28;20465;-72
2022/04/24 20:43:09;;;;;;;13.38;4.97;;;;;;;8.62;100.00;100882.19;10348823;28;20038;-73
2022/04/24 20:48:09;;;;;;;10.93;4.78;;;;;;;8.44;100.00;100868.59;10348834;28;20097;-73
2022/04/24 20:53:10;;;;;;;9.80;5.43;;;;;;;8.46;100.00;100874.69;10346374;28;20092;-73
2022/04/24 20:58:10;;;;;;;9.52;5.13;;;;;;;8.56;100.00;100882.28;10344342;28;20026;-73
2022/04/24 21:03:14;;;;;;;9.00;5.03;;;;;;;8.67;100.00;100890.50;10345647;28;20069;-73
2022/04/24 21:08:14;;;;;;;10.30;5.18;;;;;;;8.77;100.00;100884.41;10343985;28;20058;-73
2022/04/24 21:13:15;;;;;;;11.40;5.60;;;;;;;8.87;100.00;100886.56;10346029;28;20033;-73
2022/04/24 21:18:15;;;;;;;9.50;5.05;;;;;;;8.89;100.00;100876.16;10345002;28;20407;-73
2022/04/24 21:23:19;;;;;;;14.88;6.22;;;;;;;8.85;100.00;100885.97;10345210;28;20038;-72
2022/04/24 21:28:23;;;;;;;8.30;5.40;;;;;;;8.75;100.00;100899.47;10345599;28;20101;-73
2022/04/24 21:33:23;;;;;;;10.57;6.00;;;;;;;8.59;100.00;100892.81;10345923;28;20042;-74
2022/04/24 21:38:24;;;;;;;13.00;6.32;;;;;;;8.42;100.00;100900.94;10346018;28;20033;-73
2022/04/24 21:43:24;;;;;;;14.93;6.78;;;;;;;8.23;100.00;100892.78;10347555;28;20034;-73
2022/04/24 21:48:27;;;;;;;14.07;6.68;;;;;;;8.13;100.00;100900.78;10347221;28;20065;-73
2022/04/24 21:53:28;;;;;;;13.07;7.53;;;;;;;8.03;100.00;100906.00;10346318;28;20038;-73
2022/04/24 21:58:28;;;;;;;15.35;7.97;;;;;;;7.88;100.00;100887.28;10346829;28;20120;-73
2022/04/24 22:08:48;;;;;;;14.95;8.68;;;;;;;7.73;100.00;100900.59;10345768;28;20038;-74
2022/04/24 22:13:49;;;;;;;13.98;8.30;;;;;;;7.60;100.00;100896.16;10350563;28;20811;-73
2022/04/24 22:18:49;;;;;;;15.65;8.52;;;;;;;7.44;100.00;100882.06;10354292;28;20530;-73
2022/04/24 22:29:09;;;;;;;16.40;8.27;;;;;;;7.36;100.00;100901.56;10323391;28;20048;-73
2022/04/24 22:34:09;;;;;;;16.23;9.35;;;;;;;7.37;100.00;100903.22;10316938;28;20047;-73
2022/04/24 22:39:10;;;;;;;18.38;9.40;;;;;;;7.22;100.00;100900.06;10319334;28;20034;-73
2022/04/24 22:44:10;;;;;;;14.48;9.40;;;;;;;7.23;100.00;100920.91;10312812;28;20057;-73
2022/04/24 22:49:11;;;;;;;17.42;9.73;;;;;;;7.18;100.00;100920.78;10312650;28;20395;-73
2022/04/24 22:54:12;;;;;;;21.50;10.38;;;;;;;7.15;100.00;100915.75;10343989;28;20038;-74
2022/04/24 22:59:12;;;;;;;16.45;9.35;;;;;;;7.20;100.00;100946.84;10352788;28;20034;-73
2022/04/24 23:04:13;;;;;;;20.88;9.57;;;;;;;7.20;100.00;100970.66;10335628;28;20122;-73
2022/04/24 23:09:13;;;;;;;20.48;10.45;;;;;;;7.04;100.00;100953.78;10353864;28;20034;-73
2022/04/24 23:14:14;;;;;;;16.00;10.10;;;;;;;7.28;100.00;100986.78;10352477;28;20045;-73
2022/04/24 23:19:16;;;;;;;19.98;10.13;;;;;;;7.43;100.00;101002.81;10351280;28;20049;-73
2022/04/24 23:24:18;;;;;;;18.02;10.90;;;;;;;7.51;100.00;101002.50;10306256;28;20065;-72
2022/04/24 23:29:19;;;;;;;17.13;9.75;;;;;;;7.52;100.00;100992.38;10309195;28;20030;-73
2022/04/24 23:34:20;;;;;;;16.35;9.90;;;;;;;7.53;100.00;100988.56;10308331;28;20067;-73
2022/04/24 23:39:21;;;;;;;20.80;11.20;;;;;;;7.56;100.00;100991.66;10344006;28;20031;-72
2022/04/24 23:44:22;;;;;;;13.55;9.48;;;;;;;7.65;100.00;100998.50;10348798;28;20049;-74